sensor_id;sensor_type;location;lat;lon;timestamp;P1;durP1;ratioP1;P2;durP2;ratioP2
22476;SDS011;65006;51.698;-0.292;2023-05-15T00:00:51;5.35;;;1.50;;
22476;SDS011;65006;51.698;-0.292;2023-05-15T00:03:17;2.90;;;1.13;;
22476;SDS011;65006;51.698;-0.292;2023-05-15T00:05:43;1.88;;;1.10;;
22476;SDS011;65006;51.698;-0.292;2023-05-15T00:08:09;3.83;;;1.35;;
22476;SDS011;65006;51.698;-0.292;2023-05-15T00:10:35;2.28;;;1.27;;
22476;SDS011;65006;51.698;-0.292;2023-05-15T00:13:01;3.70;;;1.65;;
22476;SDS011;65006;51.698;-0.292;2023-05-15T00:15:27;1.73;;;1.08;;
22476;SDS011;65006;51.698;-0.292;2023-05-15T00:17:53;3.25;;;1.33;;
22476;SDS011;65006;51.698;-0.292;2023-05-15T00:20:19;2.33;;;1.33;;
22476;SDS011;65006;51.698;-0.292;2023-05-15T00:22:45;2.20;;;1.00;;
22476;SDS011;65006;51.698;-0.292;2023-05-15T00:25:11;2.63;;;1.33;;
22476;SDS011;65006;51.698;-0.292;2023-05-15T00:27:37;2.63;;;1.27;;
22476;SDS011;65006;51.698;-0.292;2023-05-15T00:30:04;4.75;;;1.50;;
22476;SDS011;65006;51.698;-0.292;2023-05-15T00:32:30;1.63;;;1.10;;
22476;SDS011;65006;51.698;-0.292;2023-05-15T00:34:56;4.63;;;1.30;;
22476;SDS011;65006;51.698;-0.292;2023-05-15T00:37:22;2.13;;;1.20;;
22476;SDS011;65006;51.698;-0.292;2023-05-15T00:39:48;3.20;;;1.30;;
22476;SDS011;65006;51.698;-0.292;2023-05-15T00:42:14;3.78;;;1.45;;
22476;SDS011;65006;51.698;-0.292;2023-05-15T00:44:41;2.60;;;1.15;;
22476;SDS011;65006;51.698;-0.292;2023-05-15T00:47:08;2.08;;;1.08;;
22476;SDS011;65006;51.698;-0.292;2023-05-15T00:49:36;1.70;;;1.23;;
22476;SDS011;65006;51.698;-0.292;2023-05-15T00:52:02;7.60;;;1.40;;
22476;SDS011;65006;51.698;-0.292;2023-05-15T00:54:32;10.32;;;1.15;;
22476;SDS011;65006;51.698;-0.292;2023-05-15T00:56:58;4.50;;;1.13;;
22476;SDS011;65006;51.698;-0.292;2023-05-15T00:59:31;1.70;;;1.30;;
22476;SDS011;65006;51.698;-0.292;2023-05-15T01:01:58;1.80;;;1.05;;
22476;SDS011;65006;51.698;-0.292;2023-05-15T01:04:24;1.50;;;1.27;;
22476;SDS011;65006;51.698;-0.292;2023-05-15T01:06:50;2.08;;;1.35;;
22476;SDS011;65006;51.698;-0.292;2023-05-15T01:09:18;1.70;;;1.27;;
22476;SDS011;65006;51.698;-0.292;2023-05-15T01:14:10;2.60;;;1.50;;
22476;SDS011;65006;51.698;-0.292;2023-05-15T01:16:36;4.25;;;1.52;;
22476;SDS011;65006;51.698;-0.292;2023-05-15T01:19:03;6.97;;;1.50;;
22476;SDS011;65006;51.698;-0.292;2023-05-15T01:29:00;5.15;;;2.30;;
22476;SDS011;65006;51.698;-0.292;2023-05-15T01:31:29;2.25;;;2.00;;
22476;SDS011;65006;51.698;-0.292;2023-05-15T01:33:58;4.68;;;2.20;;
22476;SDS011;65006;51.698;-0.292;2023-05-15T01:36:25;3.08;;;1.92;;
22476;SDS011;65006;51.698;-0.292;2023-05-15T01:38:59;3.55;;;2.10;;
22476;SDS011;65006;51.698;-0.292;2023-05-15T01:43:56;3.05;;;1.95;;
22476;SDS011;65006;51.698;-0.292;2023-05-15T01:46:23;3.42;;;2.30;;
22476;SDS011;65006;51.698;-0.292;2023-05-15T01:48:50;3.60;;;2.47;;
22476;SDS011;65006;51.698;-0.292;2023-05-15T01:51:17;4.70;;;2.78;;
22476;SDS011;65006;51.698;-0.292;2023-05-15T01:53:43;5.78;;;2.75;;
22476;SDS011;65006;51.698;-0.292;2023-05-15T01:56:11;3.53;;;2.63;;
22476;SDS011;65006;51.698;-0.292;2023-05-15T01:58:37;4.28;;;2.70;;
22476;SDS011;65006;51.698;-0.292;2023-05-15T02:01:04;5.72;;;2.72;;
22476;SDS011;65006;51.698;-0.292;2023-05-15T02:03:31;4.07;;;2.50;;
22476;SDS011;65006;51.698;-0.292;2023-05-15T02:05:58;3.80;;;2.70;;
22476;SDS011;65006;51.698;-0.292;2023-05-15T02:08:24;8.80;;;3.90;;
22476;SDS011;65006;51.698;-0.292;2023-05-15T02:10:53;4.50;;;3.13;;
22476;SDS011;65006;51.698;-0.292;2023-05-15T02:13:19;4.57;;;3.35;;
22476;SDS011;65006;51.698;-0.292;2023-05-15T02:15:46;5.10;;;3.33;;
22476;SDS011;65006;51.698;-0.292;2023-05-15T02:18:12;8.73;;;3.53;;
22476;SDS011;65006;51.698;-0.292;2023-05-15T02:20:38;4.53;;;3.05;;
22476;SDS011;65006;51.698;-0.292;2023-05-15T02:23:04;5.70;;;3.75;;
22476;SDS011;65006;51.698;-0.292;2023-05-15T02:25:37;6.25;;;3.45;;
22476;SDS011;65006;51.698;-0.292;2023-05-15T02:28:06;4.85;;;3.70;;
22476;SDS011;65006;51.698;-0.292;2023-05-15T02:33:11;6.80;;;3.78;;
22476;SDS011;65006;51.698;-0.292;2023-05-15T02:35:43;10.27;;;3.58;;
22476;SDS011;65006;51.698;-0.292;2023-05-15T02:38:16;4.60;;;3.47;;
22476;SDS011;65006;51.698;-0.292;2023-05-15T02:40:44;4.95;;;3.60;;
22476;SDS011;65006;51.698;-0.292;2023-05-15T02:43:10;6.25;;;3.40;;
22476;SDS011;65006;51.698;-0.292;2023-05-15T02:48:03;7.05;;;4.15;;
22476;SDS011;65006;51.698;-0.292;2023-05-15T02:50:29;5.53;;;3.92;;
22476;SDS011;65006;51.698;-0.292;2023-05-15T02:53:02;5.22;;;3.78;;
22476;SDS011;65006;51.698;-0.292;2023-05-15T02:55:28;5.38;;;3.47;;
22476;SDS011;65006;51.698;-0.292;2023-05-15T02:57:54;5.57;;;4.00;;
22476;SDS011;65006;51.698;-0.292;2023-05-15T03:00:20;5.28;;;3.65;;
22476;SDS011;65006;51.698;-0.292;2023-05-15T03:02:46;6.20;;;3.83;;
22476;SDS011;65006;51.698;-0.292;2023-05-15T03:05:13;8.85;;;4.30;;
22476;SDS011;65006;51.698;-0.292;2023-05-15T03:07:39;5.30;;;3.90;;
22476;SDS011;65006;51.698;-0.292;2023-05-15T03:10:06;7.93;;;4.22;;
22476;SDS011;65006;51.698;-0.292;2023-05-15T03:12:32;5.57;;;3.80;;
22476;SDS011;65006;51.698;-0.292;2023-05-15T03:14:58;4.80;;;3.50;;
22476;SDS011;65006;51.698;-0.292;2023-05-15T03:19:51;7.32;;;3.53;;
22476;SDS011;65006;51.698;-0.292;2023-05-15T03:22:19;6.10;;;4.40;;
22476;SDS011;65006;51.698;-0.292;2023-05-15T03:24:45;6.05;;;4.03;;
22476;SDS011;65006;51.698;-0.292;2023-05-15T03:27:11;4.95;;;3.22;;
22476;SDS011;65006;51.698;-0.292;2023-05-15T03:29:37;8.43;;;4.22;;
22476;SDS011;65006;51.698;-0.292;2023-05-15T03:32:03;8.23;;;3.97;;
22476;SDS011;65006;51.698;-0.292;2023-05-15T03:34:30;8.65;;;3.83;;
22476;SDS011;65006;51.698;-0.292;2023-05-15T03:36:56;5.13;;;3.28;;
22476;SDS011;65006;51.698;-0.292;2023-05-15T03:39:22;5.68;;;2.70;;
22476;SDS011;65006;51.698;-0.292;2023-05-15T03:41:48;4.55;;;2.97;;
22476;SDS011;65006;51.698;-0.292;2023-05-15T03:44:14;5.35;;;2.50;;
22476;SDS011;65006;51.698;-0.292;2023-05-15T03:46:40;6.43;;;2.67;;
22476;SDS011;65006;51.698;-0.292;2023-05-15T03:49:06;5.60;;;2.60;;
22476;SDS011;65006;51.698;-0.292;2023-05-15T03:51:32;6.72;;;2.38;;
22476;SDS011;65006;51.698;-0.292;2023-05-15T03:53:58;3.38;;;1.83;;
22476;SDS011;65006;51.698;-0.292;2023-05-15T03:56:24;7.00;;;1.80;;
22476;SDS011;65006;51.698;-0.292;2023-05-15T03:58:50;3.92;;;2.00;;
22476;SDS011;65006;51.698;-0.292;2023-05-15T04:01:16;8.82;;;1.80;;
22476;SDS011;65006;51.698;-0.292;2023-05-15T04:03:42;6.03;;;1.67;;
22476;SDS011;65006;51.698;-0.292;2023-05-15T04:06:08;6.13;;;1.52;;
22476;SDS011;65006;51.698;-0.292;2023-05-15T04:08:34;7.22;;;2.00;;
22476;SDS011;65006;51.698;-0.292;2023-05-15T04:11:00;5.68;;;1.65;;
22476;SDS011;65006;51.698;-0.292;2023-05-15T04:13:26;3.10;;;1.58;;
22476;SDS011;65006;51.698;-0.292;2023-05-15T04:15:52;4.95;;;1.90;;
22476;SDS011;65006;51.698;-0.292;2023-05-15T04:18:19;5.95;;;1.63;;
22476;SDS011;65006;51.698;-0.292;2023-05-15T04:20:45;5.10;;;1.63;;
22476;SDS011;65006;51.698;-0.292;2023-05-15T04:23:11;3.70;;;1.73;;
22476;SDS011;65006;51.698;-0.292;2023-05-15T04:25:37;7.47;;;1.70;;
22476;SDS011;65006;51.698;-0.292;2023-05-15T04:28:03;2.35;;;1.52;;
22476;SDS011;65006;51.698;-0.292;2023-05-15T04:30:30;4.80;;;1.55;;
22476;SDS011;65006;51.698;-0.292;2023-05-15T04:32:56;5.80;;;1.27;;
22476;SDS011;65006;51.698;-0.292;2023-05-15T04:35:22;3.13;;;1.38;;
22476;SDS011;65006;51.698;-0.292;2023-05-15T04:37:48;7.03;;;2.00;;
22476;SDS011;65006;51.698;-0.292;2023-05-15T04:40:14;6.30;;;1.90;;
22476;SDS011;65006;51.698;-0.292;2023-05-15T04:42:40;5.20;;;1.50;;
22476;SDS011;65006;51.698;-0.292;2023-05-15T04:45:06;14.35;;;2.00;;
22476;SDS011;65006;51.698;-0.292;2023-05-15T04:47:33;6.18;;;1.75;;
22476;SDS011;65006;51.698;-0.292;2023-05-15T04:49:59;7.97;;;2.10;;
22476;SDS011;65006;51.698;-0.292;2023-05-15T04:52:25;5.32;;;2.03;;
22476;SDS011;65006;51.698;-0.292;2023-05-15T04:54:51;6.07;;;1.70;;
22476;SDS011;65006;51.698;-0.292;2023-05-15T04:57:19;6.38;;;1.52;;
22476;SDS011;65006;51.698;-0.292;2023-05-15T04:59:45;4.57;;;1.85;;
22476;SDS011;65006;51.698;-0.292;2023-05-15T05:02:11;6.00;;;1.63;;
22476;SDS011;65006;51.698;-0.292;2023-05-15T05:04:37;6.13;;;1.80;;
22476;SDS011;65006;51.698;-0.292;2023-05-15T05:07:04;7.30;;;1.73;;
22476;SDS011;65006;51.698;-0.292;2023-05-15T05:09:30;5.35;;;1.63;;
22476;SDS011;65006;51.698;-0.292;2023-05-15T05:11:59;7.05;;;1.70;;
22476;SDS011;65006;51.698;-0.292;2023-05-15T05:14:26;12.30;;;1.40;;
22476;SDS011;65006;51.698;-0.292;2023-05-15T05:16:52;8.02;;;1.23;;
22476;SDS011;65006;51.698;-0.292;2023-05-15T05:19:18;8.57;;;1.90;;
22476;SDS011;65006;51.698;-0.292;2023-05-15T05:21:44;7.47;;;1.63;;
22476;SDS011;65006;51.698;-0.292;2023-05-15T05:24:10;2.67;;;1.45;;
22476;SDS011;65006;51.698;-0.292;2023-05-15T05:26:36;5.75;;;1.45;;
22476;SDS011;65006;51.698;-0.292;2023-05-15T05:29:02;5.10;;;1.25;;
22476;SDS011;65006;51.698;-0.292;2023-05-15T05:31:28;2.65;;;1.30;;
22476;SDS011;65006;51.698;-0.292;2023-05-15T05:33:54;5.95;;;1.45;;
22476;SDS011;65006;51.698;-0.292;2023-05-15T05:36:20;5.50;;;1.33;;
22476;SDS011;65006;51.698;-0.292;2023-05-15T05:38:46;4.90;;;1.33;;
22476;SDS011;65006;51.698;-0.292;2023-05-15T05:41:12;4.13;;;1.50;;
22476;SDS011;65006;51.698;-0.292;2023-05-15T05:43:38;2.55;;;1.00;;
22476;SDS011;65006;51.698;-0.292;2023-05-15T05:46:04;6.53;;;1.75;;
22476;SDS011;65006;51.698;-0.292;2023-05-15T05:48:30;4.88;;;0.98;;
22476;SDS011;65006;51.698;-0.292;2023-05-15T05:50:56;7.88;;;1.55;;
22476;SDS011;65006;51.698;-0.292;2023-05-15T05:53:22;8.40;;;1.27;;
22476;SDS011;65006;51.698;-0.292;2023-05-15T05:55:48;3.03;;;1.10;;
22476;SDS011;65006;51.698;-0.292;2023-05-15T05:58:15;7.65;;;1.30;;
22476;SDS011;65006;51.698;-0.292;2023-05-15T06:00:42;9.60;;;1.17;;
22476;SDS011;65006;51.698;-0.292;2023-05-15T06:03:08;7.47;;;1.65;;
22476;SDS011;65006;51.698;-0.292;2023-05-15T06:05:35;3.85;;;1.40;;
22476;SDS011;65006;51.698;-0.292;2023-05-15T06:08:01;3.67;;;0.95;;
22476;SDS011;65006;51.698;-0.292;2023-05-15T06:12:54;7.30;;;1.27;;
22476;SDS011;65006;51.698;-0.292;2023-05-15T06:15:20;4.15;;;0.70;;
22476;SDS011;65006;51.698;-0.292;2023-05-15T06:17:46;4.70;;;1.10;;
22476;SDS011;65006;51.698;-0.292;2023-05-15T06:20:13;5.00;;;1.13;;
22476;SDS011;65006;51.698;-0.292;2023-05-15T06:22:40;4.47;;;1.20;;
22476;SDS011;65006;51.698;-0.292;2023-05-15T06:25:06;5.43;;;0.80;;
22476;SDS011;65006;51.698;-0.292;2023-05-15T06:27:37;3.72;;;0.85;;
22476;SDS011;65006;51.698;-0.292;2023-05-15T06:30:03;5.05;;;0.88;;
22476;SDS011;65006;51.698;-0.292;2023-05-15T06:32:30;5.57;;;0.82;;
22476;SDS011;65006;51.698;-0.292;2023-05-15T06:34:58;3.38;;;1.55;;
22476;SDS011;65006;51.698;-0.292;2023-05-15T06:37:24;6.93;;;0.90;;
22476;SDS011;65006;51.698;-0.292;2023-05-15T06:39:51;2.97;;;1.02;;
22476;SDS011;65006;51.698;-0.292;2023-05-15T06:42:17;1.83;;;0.57;;
22476;SDS011;65006;51.698;-0.292;2023-05-15T06:44:43;3.58;;;1.08;;
22476;SDS011;65006;51.698;-0.292;2023-05-15T06:47:11;3.40;;;0.98;;
22476;SDS011;65006;51.698;-0.292;2023-05-15T06:49:37;3.83;;;0.70;;
22476;SDS011;65006;51.698;-0.292;2023-05-15T06:52:03;7.30;;;1.38;;
22476;SDS011;65006;51.698;-0.292;2023-05-15T06:54:36;3.78;;;0.73;;
22476;SDS011;65006;51.698;-0.292;2023-05-15T06:57:04;4.53;;;0.88;;
22476;SDS011;65006;51.698;-0.292;2023-05-15T06:59:30;3.65;;;0.95;;
22476;SDS011;65006;51.698;-0.292;2023-05-15T07:01:59;4.03;;;0.82;;
22476;SDS011;65006;51.698;-0.292;2023-05-15T07:04:25;3.42;;;0.70;;
22476;SDS011;65006;51.698;-0.292;2023-05-15T07:06:51;7.78;;;1.33;;
22476;SDS011;65006;51.698;-0.292;2023-05-15T07:09:17;6.00;;;0.85;;
22476;SDS011;65006;51.698;-0.292;2023-05-15T07:11:43;8.15;;;1.48;;
22476;SDS011;65006;51.698;-0.292;2023-05-15T07:14:09;7.95;;;0.80;;
22476;SDS011;65006;51.698;-0.292;2023-05-15T07:16:35;5.95;;;1.08;;
22476;SDS011;65006;51.698;-0.292;2023-05-15T07:19:01;6.13;;;0.95;;
22476;SDS011;65006;51.698;-0.292;2023-05-15T07:21:27;3.85;;;0.80;;
22476;SDS011;65006;51.698;-0.292;2023-05-15T07:23:53;6.88;;;1.20;;
22476;SDS011;65006;51.698;-0.292;2023-05-15T07:26:19;3.97;;;0.98;;
22476;SDS011;65006;51.698;-0.292;2023-05-15T07:28:45;4.63;;;0.77;;
22476;SDS011;65006;51.698;-0.292;2023-05-15T07:31:11;3.90;;;0.88;;
22476;SDS011;65006;51.698;-0.292;2023-05-15T07:33:37;8.25;;;0.90;;
22476;SDS011;65006;51.698;-0.292;2023-05-15T07:36:03;5.57;;;0.77;;
22476;SDS011;65006;51.698;-0.292;2023-05-15T07:38:30;5.28;;;0.73;;
22476;SDS011;65006;51.698;-0.292;2023-05-15T07:40:56;2.60;;;1.20;;
22476;SDS011;65006;51.698;-0.292;2023-05-15T07:43:22;3.33;;;0.85;;
22476;SDS011;65006;51.698;-0.292;2023-05-15T07:45:48;7.22;;;1.13;;
22476;SDS011;65006;51.698;-0.292;2023-05-15T07:48:18;2.90;;;0.60;;
22476;SDS011;65006;51.698;-0.292;2023-05-15T07:50:45;2.58;;;1.20;;
22476;SDS011;65006;51.698;-0.292;2023-05-15T07:53:11;5.90;;;0.77;;
22476;SDS011;65006;51.698;-0.292;2023-05-15T07:55:37;7.03;;;1.00;;
22476;SDS011;65006;51.698;-0.292;2023-05-15T07:58:03;4.53;;;0.85;;
22476;SDS011;65006;51.698;-0.292;2023-05-15T08:00:31;7.45;;;1.42;;
22476;SDS011;65006;51.698;-0.292;2023-05-15T08:02:58;2.75;;;0.88;;
22476;SDS011;65006;51.698;-0.292;2023-05-15T08:05:24;2.40;;;0.70;;
22476;SDS011;65006;51.698;-0.292;2023-05-15T08:07:50;7.13;;;0.95;;
22476;SDS011;65006;51.698;-0.292;2023-05-15T08:10:16;8.60;;;1.10;;
22476;SDS011;65006;51.698;-0.292;2023-05-15T08:12:59;3.13;;;0.77;;
22476;SDS011;65006;51.698;-0.292;2023-05-15T08:15:25;3.80;;;0.90;;
22476;SDS011;65006;51.698;-0.292;2023-05-15T08:17:51;5.95;;;1.13;;
22476;SDS011;65006;51.698;-0.292;2023-05-15T08:20:17;6.00;;;1.67;;
22476;SDS011;65006;51.698;-0.292;2023-05-15T08:22:43;4.43;;;1.00;;
22476;SDS011;65006;51.698;-0.292;2023-05-15T08:25:09;6.15;;;0.75;;
22476;SDS011;65006;51.698;-0.292;2023-05-15T08:27:35;10.30;;;0.88;;
22476;SDS011;65006;51.698;-0.292;2023-05-15T08:30:02;3.03;;;0.85;;
22476;SDS011;65006;51.698;-0.292;2023-05-15T08:32:28;1.75;;;0.80;;
22476;SDS011;65006;51.698;-0.292;2023-05-15T08:34:54;2.22;;;0.82;;
22476;SDS011;65006;51.698;-0.292;2023-05-15T08:37:22;1.60;;;0.60;;
22476;SDS011;65006;51.698;-0.292;2023-05-15T08:39:48;5.25;;;1.00;;
22476;SDS011;65006;51.698;-0.292;2023-05-15T08:42:20;12.32;;;0.80;;
22476;SDS011;65006;51.698;-0.292;2023-05-15T08:44:48;3.13;;;0.70;;
22476;SDS011;65006;51.698;-0.292;2023-05-15T08:47:15;1.98;;;0.70;;
22476;SDS011;65006;51.698;-0.292;2023-05-15T08:49:56;5.13;;;0.70;;
22476;SDS011;65006;51.698;-0.292;2023-05-15T08:52:24;6.95;;;0.90;;
22476;SDS011;65006;51.698;-0.292;2023-05-15T08:54:51;5.00;;;0.50;;
22476;SDS011;65006;51.698;-0.292;2023-05-15T08:57:18;4.50;;;1.17;;
22476;SDS011;65006;51.698;-0.292;2023-05-15T08:59:45;2.45;;;0.50;;
22476;SDS011;65006;51.698;-0.292;2023-05-15T09:02:11;2.42;;;0.55;;
22476;SDS011;65006;51.698;-0.292;2023-05-15T09:04:37;2.17;;;1.05;;
22476;SDS011;65006;51.698;-0.292;2023-05-15T09:07:03;5.63;;;0.80;;
22476;SDS011;65006;51.698;-0.292;2023-05-15T09:09:31;2.70;;;0.60;;
22476;SDS011;65006;51.698;-0.292;2023-05-15T09:11:59;2.47;;;0.75;;
22476;SDS011;65006;51.698;-0.292;2023-05-15T09:14:26;2.85;;;0.80;;
22476;SDS011;65006;51.698;-0.292;2023-05-15T09:16:52;3.30;;;0.60;;
22476;SDS011;65006;51.698;-0.292;2023-05-15T09:19:18;2.63;;;0.45;;
22476;SDS011;65006;51.698;-0.292;2023-05-15T09:21:46;3.22;;;0.70;;
22476;SDS011;65006;51.698;-0.292;2023-05-15T09:24:16;2.58;;;0.70;;
22476;SDS011;65006;51.698;-0.292;2023-05-15T09:26:43;4.15;;;0.77;;
22476;SDS011;65006;51.698;-0.292;2023-05-15T09:29:09;2.83;;;0.45;;
22476;SDS011;65006;51.698;-0.292;2023-05-15T09:31:36;4.22;;;0.77;;
22476;SDS011;65006;51.698;-0.292;2023-05-15T09:34:02;4.10;;;0.50;;
22476;SDS011;65006;51.698;-0.292;2023-05-15T09:36:30;6.75;;;0.98;;
22476;SDS011;65006;51.698;-0.292;2023-05-15T09:38:59;3.70;;;0.47;;
22476;SDS011;65006;51.698;-0.292;2023-05-15T09:41:27;5.22;;;0.93;;
22476;SDS011;65006;51.698;-0.292;2023-05-15T09:43:53;8.07;;;0.80;;
22476;SDS011;65006;51.698;-0.292;2023-05-15T09:46:22;1.73;;;0.45;;
22476;SDS011;65006;51.698;-0.292;2023-05-15T09:48:48;4.57;;;1.23;;
22476;SDS011;65006;51.698;-0.292;2023-05-15T09:51:18;4.78;;;0.50;;
22476;SDS011;65006;51.698;-0.292;2023-05-15T09:53:47;3.22;;;0.60;;
22476;SDS011;65006;51.698;-0.292;2023-05-15T09:56:13;3.40;;;0.88;;
22476;SDS011;65006;51.698;-0.292;2023-05-15T09:58:50;5.65;;;0.77;;
22476;SDS011;65006;51.698;-0.292;2023-05-15T10:01:18;3.50;;;0.60;;
22476;SDS011;65006;51.698;-0.292;2023-05-15T10:03:55;5.65;;;0.90;;
22476;SDS011;65006;51.698;-0.292;2023-05-15T10:06:21;3.87;;;0.77;;
22476;SDS011;65006;51.698;-0.292;2023-05-15T10:08:54;2.65;;;0.80;;
22476;SDS011;65006;51.698;-0.292;2023-05-15T10:11:20;2.72;;;0.73;;
22476;SDS011;65006;51.698;-0.292;2023-05-15T10:13:47;10.55;;;1.17;;
22476;SDS011;65006;51.698;-0.292;2023-05-15T10:16:14;3.45;;;0.57;;
22476;SDS011;65006;51.698;-0.292;2023-05-15T10:18:40;3.58;;;0.57;;
22476;SDS011;65006;51.698;-0.292;2023-05-15T10:23:33;5.45;;;0.90;;
22476;SDS011;65006;51.698;-0.292;2023-05-15T10:26:06;1.85;;;0.55;;
22476;SDS011;65006;51.698;-0.292;2023-05-15T10:28:33;4.40;;;0.90;;
22476;SDS011;65006;51.698;-0.292;2023-05-15T10:31:00;4.70;;;0.68;;
22476;SDS011;65006;51.698;-0.292;2023-05-15T10:33:26;4.88;;;0.70;;
22476;SDS011;65006;51.698;-0.292;2023-05-15T10:35:52;3.30;;;1.20;;
22476;SDS011;65006;51.698;-0.292;2023-05-15T10:38:19;5.70;;;0.77;;
22476;SDS011;65006;51.698;-0.292;2023-05-15T10:40:46;3.10;;;0.60;;
22476;SDS011;65006;51.698;-0.292;2023-05-15T10:43:12;1.23;;;0.50;;
22476;SDS011;65006;51.698;-0.292;2023-05-15T10:45:38;1.63;;;0.60;;
22476;SDS011;65006;51.698;-0.292;2023-05-15T10:48:05;1.42;;;0.57;;
22476;SDS011;65006;51.698;-0.292;2023-05-15T10:50:32;0.82;;;0.20;;
22476;SDS011;65006;51.698;-0.292;2023-05-15T10:52:58;3.63;;;0.68;;
22476;SDS011;65006;51.698;-0.292;2023-05-15T10:55:24;2.22;;;0.60;;
22476;SDS011;65006;51.698;-0.292;2023-05-15T10:57:50;2.38;;;0.60;;
22476;SDS011;65006;51.698;-0.292;2023-05-15T11:02:43;2.85;;;0.40;;
22476;SDS011;65006;51.698;-0.292;2023-05-15T11:05:09;0.95;;;0.40;;
22476;SDS011;65006;51.698;-0.292;2023-05-15T11:07:36;4.00;;;0.60;;
22476;SDS011;65006;51.698;-0.292;2023-05-15T11:10:09;1.90;;;0.40;;
22476;SDS011;65006;51.698;-0.292;2023-05-15T11:13:01;2.20;;;0.80;;
22476;SDS011;65006;51.698;-0.292;2023-05-15T11:15:40;1.75;;;0.60;;
22476;SDS011;65006;51.698;-0.292;2023-05-15T11:18:06;1.45;;;0.65;;
22476;SDS011;65006;51.698;-0.292;2023-05-15T11:20:37;4.03;;;0.90;;
22476;SDS011;65006;51.698;-0.292;2023-05-15T11:23:03;2.40;;;0.40;;
22476;SDS011;65006;51.698;-0.292;2023-05-15T11:25:29;5.47;;;0.70;;
22476;SDS011;65006;51.698;-0.292;2023-05-15T11:27:58;3.63;;;0.60;;
22476;SDS011;65006;51.698;-0.292;2023-05-15T11:30:35;4.60;;;0.60;;
22476;SDS011;65006;51.698;-0.292;2023-05-15T11:33:09;2.07;;;0.50;;
22476;SDS011;65006;51.698;-0.292;2023-05-15T11:35:39;1.67;;;0.50;;
22476;SDS011;65006;51.698;-0.292;2023-05-15T11:40:58;4.80;;;0.63;;
22476;SDS011;65006;51.698;-0.292;2023-05-15T11:43:30;6.40;;;0.63;;
22476;SDS011;65006;51.698;-0.292;2023-05-15T11:46:05;2.88;;;0.45;;
22476;SDS011;65006;51.698;-0.292;2023-05-15T11:48:36;1.05;;;0.50;;
22476;SDS011;65006;51.698;-0.292;2023-05-15T11:51:03;2.10;;;0.55;;
22476;SDS011;65006;51.698;-0.292;2023-05-15T11:53:29;1.90;;;0.32;;
22476;SDS011;65006;51.698;-0.292;2023-05-15T11:55:56;2.75;;;0.55;;
22476;SDS011;65006;51.698;-0.292;2023-05-15T11:58:23;4.03;;;0.30;;
22476;SDS011;65006;51.698;-0.292;2023-05-15T12:00:50;1.63;;;0.40;;
22476;SDS011;65006;51.698;-0.292;2023-05-15T12:03:22;3.63;;;0.68;;
22476;SDS011;65006;51.698;-0.292;2023-05-15T12:05:48;1.63;;;0.47;;
22476;SDS011;65006;51.698;-0.292;2023-05-15T12:08:15;0.95;;;0.30;;
22476;SDS011;65006;51.698;-0.292;2023-05-15T12:10:44;3.78;;;0.43;;
22476;SDS011;65006;51.698;-0.292;2023-05-15T12:13:11;2.00;;;0.40;;
22476;SDS011;65006;51.698;-0.292;2023-05-15T12:15:37;1.52;;;0.35;;
22476;SDS011;65006;51.698;-0.292;2023-05-15T12:20:31;1.05;;;0.25;;
22476;SDS011;65006;51.698;-0.292;2023-05-15T12:22:57;1.10;;;0.50;;
22476;SDS011;65006;51.698;-0.292;2023-05-15T12:25:23;2.72;;;0.45;;
22476;SDS011;65006;51.698;-0.292;2023-05-15T12:27:49;1.98;;;0.50;;
22476;SDS011;65006;51.698;-0.292;2023-05-15T12:30:16;1.58;;;0.40;;
22476;SDS011;65006;51.698;-0.292;2023-05-15T12:32:42;3.88;;;0.50;;
22476;SDS011;65006;51.698;-0.292;2023-05-15T12:35:08;1.33;;;0.50;;
22476;SDS011;65006;51.698;-0.292;2023-05-15T12:37:36;2.65;;;0.52;;
22476;SDS011;65006;51.698;-0.292;2023-05-15T12:40:03;3.03;;;0.55;;
22476;SDS011;65006;51.698;-0.292;2023-05-15T12:42:41;3.03;;;0.90;;
22476;SDS011;65006;51.698;-0.292;2023-05-15T12:45:14;2.22;;;0.50;;
22476;SDS011;65006;51.698;-0.292;2023-05-15T12:47:40;4.22;;;0.57;;
22476;SDS011;65006;51.698;-0.292;2023-05-15T12:52:32;4.30;;;0.55;;
22476;SDS011;65006;51.698;-0.292;2023-05-15T12:54:59;0.65;;;0.40;;
22476;SDS011;65006;51.698;-0.292;2023-05-15T12:57:25;3.22;;;0.70;;
22476;SDS011;65006;51.698;-0.292;2023-05-15T12:59:51;2.83;;;0.45;;
22476;SDS011;65006;51.698;-0.292;2023-05-15T13:02:17;3.38;;;0.60;;
22476;SDS011;65006;51.698;-0.292;2023-05-15T13:04:45;1.95;;;0.47;;
22476;SDS011;65006;51.698;-0.292;2023-05-15T13:07:13;5.57;;;0.73;;
22476;SDS011;65006;51.698;-0.292;2023-05-15T13:09:42;2.25;;;0.50;;
22476;SDS011;65006;51.698;-0.292;2023-05-15T13:14:41;1.98;;;0.50;;
22476;SDS011;65006;51.698;-0.292;2023-05-15T13:17:07;3.17;;;0.77;;
22476;SDS011;65006;51.698;-0.292;2023-05-15T13:19:33;2.00;;;0.60;;
22476;SDS011;65006;51.698;-0.292;2023-05-15T13:21:59;2.05;;;0.70;;
22476;SDS011;65006;51.698;-0.292;2023-05-15T13:24:25;5.28;;;0.73;;
22476;SDS011;65006;51.698;-0.292;2023-05-15T13:26:51;1.77;;;0.55;;
22476;SDS011;65006;51.698;-0.292;2023-05-15T13:29:17;3.95;;;0.65;;
22476;SDS011;65006;51.698;-0.292;2023-05-15T13:31:43;4.72;;;0.63;;
22476;SDS011;65006;51.698;-0.292;2023-05-15T13:34:09;1.30;;;0.40;;
22476;SDS011;65006;51.698;-0.292;2023-05-15T13:36:35;1.00;;;0.30;;
22476;SDS011;65006;51.698;-0.292;2023-05-15T13:39:01;1.92;;;0.55;;
22476;SDS011;65006;51.698;-0.292;2023-05-15T13:41:27;1.38;;;0.50;;
22476;SDS011;65006;51.698;-0.292;2023-05-15T13:43:53;1.35;;;0.50;;
22476;SDS011;65006;51.698;-0.292;2023-05-15T13:46:19;1.23;;;0.57;;
22476;SDS011;65006;51.698;-0.292;2023-05-15T13:48:45;5.88;;;0.47;;
22476;SDS011;65006;51.698;-0.292;2023-05-15T13:51:11;1.50;;;0.50;;
22476;SDS011;65006;51.698;-0.292;2023-05-15T13:53:37;1.85;;;0.50;;
22476;SDS011;65006;51.698;-0.292;2023-05-15T13:56:03;3.40;;;0.80;;
22476;SDS011;65006;51.698;-0.292;2023-05-15T13:58:30;1.50;;;0.60;;
22476;SDS011;65006;51.698;-0.292;2023-05-15T14:00:56;3.00;;;0.60;;
22476;SDS011;65006;51.698;-0.292;2023-05-15T14:03:22;4.40;;;0.70;;
22476;SDS011;65006;51.698;-0.292;2023-05-15T14:05:48;2.05;;;0.52;;
22476;SDS011;65006;51.698;-0.292;2023-05-15T14:08:14;1.40;;;0.70;;
22476;SDS011;65006;51.698;-0.292;2023-05-15T14:10:40;2.15;;;0.60;;
22476;SDS011;65006;51.698;-0.292;2023-05-15T14:13:06;2.97;;;0.70;;
22476;SDS011;65006;51.698;-0.292;2023-05-15T14:15:32;1.77;;;0.50;;
22476;SDS011;65006;51.698;-0.292;2023-05-15T14:17:58;2.13;;;0.70;;
22476;SDS011;65006;51.698;-0.292;2023-05-15T14:20:24;4.53;;;0.50;;
22476;SDS011;65006;51.698;-0.292;2023-05-15T14:22:50;2.60;;;0.45;;
22476;SDS011;65006;51.698;-0.292;2023-05-15T14:25:16;1.98;;;0.45;;
22476;SDS011;65006;51.698;-0.292;2023-05-15T14:27:42;1.85;;;0.50;;
22476;SDS011;65006;51.698;-0.292;2023-05-15T14:30:08;2.40;;;0.50;;
22476;SDS011;65006;51.698;-0.292;2023-05-15T14:32:34;3.88;;;0.52;;
22476;SDS011;65006;51.698;-0.292;2023-05-15T14:35:00;2.55;;;0.73;;
22476;SDS011;65006;51.698;-0.292;2023-05-15T14:37:26;5.20;;;1.08;;
22476;SDS011;65006;51.698;-0.292;2023-05-15T14:39:52;2.88;;;0.88;;
22476;SDS011;65006;51.698;-0.292;2023-05-15T14:42:19;6.60;;;0.55;;
22476;SDS011;65006;51.698;-0.292;2023-05-15T14:44:45;3.55;;;0.88;;
22476;SDS011;65006;51.698;-0.292;2023-05-15T14:47:12;5.00;;;0.65;;
22476;SDS011;65006;51.698;-0.292;2023-05-15T14:49:38;2.42;;;0.45;;
22476;SDS011;65006;51.698;-0.292;2023-05-15T14:52:06;1.55;;;0.68;;
22476;SDS011;65006;51.698;-0.292;2023-05-15T14:54:33;2.80;;;0.55;;
22476;SDS011;65006;51.698;-0.292;2023-05-15T14:57:02;2.65;;;0.60;;
22476;SDS011;65006;51.698;-0.292;2023-05-15T14:59:29;2.00;;;0.65;;
22476;SDS011;65006;51.698;-0.292;2023-05-15T15:01:55;2.42;;;0.40;;
22476;SDS011;65006;51.698;-0.292;2023-05-15T15:04:21;4.88;;;0.60;;
22476;SDS011;65006;51.698;-0.292;2023-05-15T15:06:48;0.40;;;0.30;;
22476;SDS011;65006;51.698;-0.292;2023-05-15T15:09:14;2.80;;;0.43;;